sensor_id;sensor_type;location;lat;lon;timestamp;P1;durP1;ratioP1;P2;durP2;ratioP2
21183;SDS011;18176;49.502;11.754;2022-07-09T00:02:12;4.70;;;2.10;;
21183;SDS011;18176;49.502;11.754;2022-07-09T00:06:09;5.83;;;2.30;;
21183;SDS011;18176;49.502;11.754;2022-07-09T00:10:06;5.90;;;2.30;;
21183;SDS011;18176;49.502;11.754;2022-07-09T00:14:03;4.97;;;2.20;;
21183;SDS011;18176;49.502;11.754;2022-07-09T00:18:01;2.63;;;2.23;;
21183;SDS011;18176;49.502;11.754;2022-07-09T00:21:58;4.50;;;2.40;;
21183;SDS011;18176;49.502;11.754;2022-07-09T00:25:55;3.73;;;2.60;;
21183;SDS011;18176;49.502;11.754;2022-07-09T00:29:52;7.13;;;3.00;;
21183;SDS011;18176;49.502;11.754;2022-07-09T00:33:50;3.93;;;2.80;;
21183;SDS011;18176;49.502;11.754;2022-07-09T00:37:47;4.13;;;2.57;;
21183;SDS011;18176;49.502;11.754;2022-07-09T00:41:44;4.40;;;2.33;;
21183;SDS011;18176;49.502;11.754;2022-07-09T00:45:41;3.20;;;2.40;;
21183;SDS011;18176;49.502;11.754;2022-07-09T00:49:39;4.00;;;2.50;;
21183;SDS011;18176;49.502;11.754;2022-07-09T00:53:38;5.37;;;2.60;;
21183;SDS011;18176;49.502;11.754;2022-07-09T00:57:36;3.53;;;2.77;;
21183;SDS011;18176;49.502;11.754;2022-07-09T01:01:35;6.93;;;2.97;;
21183;SDS011;18176;49.502;11.754;2022-07-09T01:05:33;5.87;;;2.80;;
21183;SDS011;18176;49.502;11.754;2022-07-09T01:09:33;4.33;;;2.77;;
21183;SDS011;18176;49.502;11.754;2022-07-09T01:13:30;3.60;;;2.60;;
21183;SDS011;18176;49.502;11.754;2022-07-09T01:17:36;4.17;;;2.63;;
21183;SDS011;18176;49.502;11.754;2022-07-09T01:21:35;4.60;;;3.00;;
21183;SDS011;18176;49.502;11.754;2022-07-09T01:25:36;3.97;;;2.60;;
21183;SDS011;18176;49.502;11.754;2022-07-09T01:29:40;5.07;;;2.63;;
21183;SDS011;18176;49.502;11.754;2022-07-09T01:33:37;7.80;;;2.80;;
21183;SDS011;18176;49.502;11.754;2022-07-09T01:37:34;4.63;;;2.60;;
21183;SDS011;18176;49.502;11.754;2022-07-09T01:41:31;4.37;;;2.53;;
21183;SDS011;18176;49.502;11.754;2022-07-09T01:45:28;6.00;;;3.20;;
21183;SDS011;18176;49.502;11.754;2022-07-09T01:49:25;5.17;;;2.90;;
21183;SDS011;18176;49.502;11.754;2022-07-09T01:53:22;6.73;;;2.90;;
21183;SDS011;18176;49.502;11.754;2022-07-09T01:57:19;4.90;;;2.50;;
21183;SDS011;18176;49.502;11.754;2022-07-09T02:01:16;4.17;;;3.07;;
21183;SDS011;18176;49.502;11.754;2022-07-09T02:05:14;3.50;;;2.60;;
21183;SDS011;18176;49.502;11.754;2022-07-09T02:09:11;5.00;;;2.50;;
21183;SDS011;18176;49.502;11.754;2022-07-09T02:13:08;4.57;;;2.80;;
21183;SDS011;18176;49.502;11.754;2022-07-09T02:17:05;5.60;;;3.10;;
21183;SDS011;18176;49.502;11.754;2022-07-09T02:21:02;7.10;;;2.57;;
21183;SDS011;18176;49.502;11.754;2022-07-09T02:25:01;4.33;;;2.80;;
21183;SDS011;18176;49.502;11.754;2022-07-09T02:28:58;5.33;;;2.90;;
21183;SDS011;18176;49.502;11.754;2022-07-09T02:32:56;5.50;;;3.30;;
21183;SDS011;18176;49.502;11.754;2022-07-09T02:36:53;4.30;;;2.70;;
21183;SDS011;18176;49.502;11.754;2022-07-09T02:40:50;4.63;;;2.90;;
21183;SDS011;18176;49.502;11.754;2022-07-09T02:44:47;7.47;;;3.10;;
21183;SDS011;18176;49.502;11.754;2022-07-09T02:48:44;4.37;;;3.10;;
21183;SDS011;18176;49.502;11.754;2022-07-09T02:52:41;6.57;;;2.90;;
21183;SDS011;18176;49.502;11.754;2022-07-09T02:56:38;5.03;;;3.00;;
21183;SDS011;18176;49.502;11.754;2022-07-09T03:00:35;3.87;;;2.90;;
21183;SDS011;18176;49.502;11.754;2022-07-09T03:04:32;5.40;;;2.93;;
21183;SDS011;18176;49.502;11.754;2022-07-09T03:08:29;6.53;;;3.20;;
21183;SDS011;18176;49.502;11.754;2022-07-09T03:12:27;5.10;;;2.93;;
21183;SDS011;18176;49.502;11.754;2022-07-09T03:16:24;6.20;;;2.97;;
21183;SDS011;18176;49.502;11.754;2022-07-09T03:20:21;7.37;;;3.13;;
21183;SDS011;18176;49.502;11.754;2022-07-09T03:24:18;3.97;;;2.70;;
21183;SDS011;18176;49.502;11.754;2022-07-09T03:28:15;5.63;;;2.93;;
21183;SDS011;18176;49.502;11.754;2022-07-09T03:32:12;4.83;;;2.80;;
21183;SDS011;18176;49.502;11.754;2022-07-09T03:36:09;5.37;;;2.83;;
21183;SDS011;18176;49.502;11.754;2022-07-09T03:40:06;4.13;;;2.70;;
21183;SDS011;18176;49.502;11.754;2022-07-09T03:44:04;6.70;;;3.20;;
21183;SDS011;18176;49.502;11.754;2022-07-09T03:48:01;6.13;;;3.20;;
21183;SDS011;18176;49.502;11.754;2022-07-09T03:51:58;6.17;;;3.60;;
21183;SDS011;18176;49.502;11.754;2022-07-09T03:56:16;4.83;;;3.40;;
21183;SDS011;18176;49.502;11.754;2022-07-09T04:00:13;4.40;;;3.03;;
21183;SDS011;18176;49.502;11.754;2022-07-09T04:04:12;4.17;;;2.60;;
21183;SDS011;18176;49.502;11.754;2022-07-09T04:08:10;3.63;;;2.47;;
21183;SDS011;18176;49.502;11.754;2022-07-09T04:12:07;7.40;;;2.60;;
21183;SDS011;18176;49.502;11.754;2022-07-09T04:16:05;5.37;;;2.40;;
21183;SDS011;18176;49.502;11.754;2022-07-09T04:20:02;6.00;;;2.60;;
21183;SDS011;18176;49.502;11.754;2022-07-09T04:24:00;5.83;;;2.60;;
21183;SDS011;18176;49.502;11.754;2022-07-09T04:27:57;5.00;;;2.63;;
21183;SDS011;18176;49.502;11.754;2022-07-09T04:31:55;4.47;;;2.50;;
21183;SDS011;18176;49.502;11.754;2022-07-09T04:35:52;4.73;;;2.50;;
21183;SDS011;18176;49.502;11.754;2022-07-09T04:39:49;6.27;;;2.87;;
21183;SDS011;18176;49.502;11.754;2022-07-09T04:43:46;2.87;;;1.97;;
21183;SDS011;18176;49.502;11.754;2022-07-09T04:47:43;4.73;;;2.57;;
21183;SDS011;18176;49.502;11.754;2022-07-09T04:51:40;3.50;;;2.23;;
21183;SDS011;18176;49.502;11.754;2022-07-09T04:55:37;4.53;;;2.80;;
21183;SDS011;18176;49.502;11.754;2022-07-09T04:59:34;6.00;;;2.93;;
21183;SDS011;18176;49.502;11.754;2022-07-09T05:03:31;5.40;;;2.50;;
21183;SDS011;18176;49.502;11.754;2022-07-09T05:07:29;6.40;;;2.93;;
21183;SDS011;18176;49.502;11.754;2022-07-09T05:11:27;3.97;;;2.30;;
21183;SDS011;18176;49.502;11.754;2022-07-09T05:15:24;2.60;;;2.23;;
21183;SDS011;18176;49.502;11.754;2022-07-09T05:19:21;4.27;;;2.13;;
21183;SDS011;18176;49.502;11.754;2022-07-09T05:23:18;2.55;;;2.00;;
21183;SDS011;18176;49.502;11.754;2022-07-09T05:27:15;4.53;;;2.23;;
21183;SDS011;18176;49.502;11.754;2022-07-09T05:31:12;6.32;;;2.53;;
21183;SDS011;18176;49.502;11.754;2022-07-09T05:35:29;6.07;;;2.70;;
21183;SDS011;18176;49.502;11.754;2022-07-09T05:39:27;4.25;;;2.35;;
21183;SDS011;18176;49.502;11.754;2022-07-09T05:43:24;6.95;;;2.50;;
21183;SDS011;18176;49.502;11.754;2022-07-09T05:47:21;4.30;;;2.40;;
21183;SDS011;18176;49.502;11.754;2022-07-09T05:51:18;8.85;;;2.25;;
21183;SDS011;18176;49.502;11.754;2022-07-09T05:55:15;3.47;;;2.20;;
21183;SDS011;18176;49.502;11.754;2022-07-09T05:59:13;5.72;;;1.90;;
21183;SDS011;18176;49.502;11.754;2022-07-09T06:03:10;4.03;;;1.80;;
21183;SDS011;18176;49.502;11.754;2022-07-09T06:07:07;5.15;;;1.80;;
21183;SDS011;18176;49.502;11.754;2022-07-09T06:11:04;3.35;;;1.70;;
21183;SDS011;18176;49.502;11.754;2022-07-09T06:15:01;3.50;;;1.60;;
21183;SDS011;18176;49.502;11.754;2022-07-09T06:18:58;5.15;;;1.80;;
21183;SDS011;18176;49.502;11.754;2022-07-09T06:22:55;3.63;;;1.70;;
21183;SDS011;18176;49.502;11.754;2022-07-09T06:26:52;3.55;;;1.80;;
21183;SDS011;18176;49.502;11.754;2022-07-09T06:30:49;3.58;;;1.80;;
21183;SDS011;18176;49.502;11.754;2022-07-09T06:34:47;4.75;;;1.80;;
21183;SDS011;18176;49.502;11.754;2022-07-09T06:38:44;5.18;;;1.85;;
21183;SDS011;18176;49.502;11.754;2022-07-09T06:43:00;5.70;;;1.92;;
21183;SDS011;18176;49.502;11.754;2022-07-09T06:47:12;3.88;;;1.80;;
21183;SDS011;18176;49.502;11.754;2022-07-09T06:51:09;4.25;;;1.80;;
21183;SDS011;18176;49.502;11.754;2022-07-09T06:55:06;3.33;;;1.70;;
21183;SDS011;18176;49.502;11.754;2022-07-09T06:59:04;2.78;;;1.60;;
21183;SDS011;18176;49.502;11.754;2022-07-09T07:03:01;3.33;;;1.40;;
21183;SDS011;18176;49.502;11.754;2022-07-09T07:07:00;4.78;;;1.60;;
21183;SDS011;18176;49.502;11.754;2022-07-09T07:10:57;4.35;;;1.70;;
21183;SDS011;18176;49.502;11.754;2022-07-09T07:14:54;3.67;;;1.50;;
21183;SDS011;18176;49.502;11.754;2022-07-09T07:18:51;2.55;;;1.50;;
21183;SDS011;18176;49.502;11.754;2022-07-09T07:22:49;5.50;;;2.20;;
21183;SDS011;18176;49.502;11.754;2022-07-09T07:26:46;4.47;;;1.60;;
21183;SDS011;18176;49.502;11.754;2022-07-09T07:30:43;2.08;;;1.42;;
21183;SDS011;18176;49.502;11.754;2022-07-09T07:34:41;4.32;;;1.40;;
21183;SDS011;18176;49.502;11.754;2022-07-09T07:38:38;3.78;;;1.80;;
21183;SDS011;18176;49.502;11.754;2022-07-09T07:42:35;3.88;;;1.63;;
21183;SDS011;18176;49.502;11.754;2022-07-09T07:46:32;3.97;;;1.50;;
21183;SDS011;18176;49.502;11.754;2022-07-09T07:50:29;2.33;;;1.35;;
21183;SDS011;18176;49.502;11.754;2022-07-09T07:54:26;2.90;;;1.10;;
21183;SDS011;18176;49.502;11.754;2022-07-09T07:58:23;4.40;;;1.35;;
21183;SDS011;18176;49.502;11.754;2022-07-09T08:02:20;2.03;;;1.30;;
21183;SDS011;18176;49.502;11.754;2022-07-09T08:06:18;3.92;;;1.40;;
21183;SDS011;18176;49.502;11.754;2022-07-09T08:10:15;2.95;;;1.23;;
21183;SDS011;18176;49.502;11.754;2022-07-09T08:14:12;6.00;;;1.35;;
21183;SDS011;18176;49.502;11.754;2022-07-09T08:18:09;2.60;;;1.20;;
21183;SDS011;18176;49.502;11.754;2022-07-09T08:22:08;3.25;;;1.40;;
21183;SDS011;18176;49.502;11.754;2022-07-09T08:26:05;4.60;;;1.75;;
21183;SDS011;18176;49.502;11.754;2022-07-09T08:30:03;3.25;;;1.30;;
21183;SDS011;18176;49.502;11.754;2022-07-09T08:34:00;4.68;;;1.70;;
21183;SDS011;18176;49.502;11.754;2022-07-09T08:37:57;4.40;;;1.80;;
21183;SDS011;18176;49.502;11.754;2022-07-09T08:41:54;4.68;;;1.70;;
21183;SDS011;18176;49.502;11.754;2022-07-09T08:45:56;7.15;;;2.00;;
21183;SDS011;18176;49.502;11.754;2022-07-09T08:49:55;4.57;;;1.80;;
21183;SDS011;18176;49.502;11.754;2022-07-09T08:53:55;4.90;;;1.50;;
21183;SDS011;18176;49.502;11.754;2022-07-09T08:57:52;2.78;;;1.65;;
21183;SDS011;18176;49.502;11.754;2022-07-09T09:01:49;3.95;;;1.65;;
21183;SDS011;18176;49.502;11.754;2022-07-09T09:05:59;2.72;;;1.80;;
21183;SDS011;18176;49.502;11.754;2022-07-09T09:09:58;3.55;;;1.60;;
21183;SDS011;18176;49.502;11.754;2022-07-09T09:13:55;3.28;;;1.63;;
21183;SDS011;18176;49.502;11.754;2022-07-09T09:17:53;4.20;;;1.60;;
21183;SDS011;18176;49.502;11.754;2022-07-09T09:21:51;5.35;;;1.92;;
21183;SDS011;18176;49.502;11.754;2022-07-09T09:25:49;6.30;;;2.17;;
21183;SDS011;18176;49.502;11.754;2022-07-09T09:29:50;4.00;;;2.00;;
21183;SDS011;18176;49.502;11.754;2022-07-09T09:33:48;2.22;;;1.70;;
21183;SDS011;18176;49.502;11.754;2022-07-09T09:37:45;3.03;;;2.10;;
21183;SDS011;18176;49.502;11.754;2022-07-09T09:41:44;3.75;;;1.80;;
21183;SDS011;18176;49.502;11.754;2022-07-09T09:45:47;3.65;;;1.58;;
21183;SDS011;18176;49.502;11.754;2022-07-09T09:49:46;6.68;;;2.08;;
21183;SDS011;18176;49.502;11.754;2022-07-09T09:53:45;3.75;;;1.73;;
21183;SDS011;18176;49.502;11.754;2022-07-09T09:57:44;4.40;;;1.80;;
21183;SDS011;18176;49.502;11.754;2022-07-09T10:01:42;2.80;;;1.40;;
21183;SDS011;18176;49.502;11.754;2022-07-09T10:05:40;3.35;;;1.45;;
21183;SDS011;18176;49.502;11.754;2022-07-09T10:09:39;3.17;;;1.50;;
21183;SDS011;18176;49.502;11.754;2022-07-09T10:13:50;3.50;;;1.60;;
21183;SDS011;18176;49.502;11.754;2022-07-09T10:17:52;3.08;;;1.50;;
21183;SDS011;18176;49.502;11.754;2022-07-09T10:21:53;4.88;;;1.52;;
21183;SDS011;18176;49.502;11.754;2022-07-09T10:25:54;3.47;;;1.55;;
21183;SDS011;18176;49.502;11.754;2022-07-09T10:33:59;4.18;;;1.70;;
21183;SDS011;18176;49.502;11.754;2022-07-09T10:38:03;4.00;;;1.40;;
21183;SDS011;18176;49.502;11.754;2022-07-09T10:42:16;2.78;;;1.50;;
21183;SDS011;18176;49.502;11.754;2022-07-09T10:46:15;3.85;;;1.45;;
21183;SDS011;18176;49.502;11.754;2022-07-09T10:50:12;3.88;;;1.60;;
21183;SDS011;18176;49.502;11.754;2022-07-09T10:54:16;4.22;;;1.67;;
21183;SDS011;18176;49.502;11.754;2022-07-09T10:58:20;2.05;;;1.60;;
21183;SDS011;18176;49.502;11.754;2022-07-09T11:02:26;2.35;;;1.60;;
21183;SDS011;18176;49.502;11.754;2022-07-09T11:06:23;2.67;;;1.73;;
21183;SDS011;18176;49.502;11.754;2022-07-09T11:10:20;8.55;;;1.90;;
21183;SDS011;18176;49.502;11.754;2022-07-09T11:14:17;5.43;;;1.98;;
21183;SDS011;18176;49.502;11.754;2022-07-09T11:18:14;3.47;;;1.80;;
21183;SDS011;18176;49.502;11.754;2022-07-09T11:22:11;4.70;;;1.92;;
21183;SDS011;18176;49.502;11.754;2022-07-09T11:26:09;2.60;;;1.58;;
21183;SDS011;18176;49.502;11.754;2022-07-09T11:30:06;4.45;;;1.77;;
21183;SDS011;18176;49.502;11.754;2022-07-09T11:38:51;3.83;;;1.60;;
21183;SDS011;18176;49.502;11.754;2022-07-09T11:43:01;4.93;;;1.60;;
21183;SDS011;18176;49.502;11.754;2022-07-09T11:51:04;2.85;;;1.70;;
21183;SDS011;18176;49.502;11.754;2022-07-09T11:55:05;5.07;;;2.35;;
21183;SDS011;18176;49.502;11.754;2022-07-09T11:59:04;3.22;;;1.73;;
21183;SDS011;18176;49.502;11.754;2022-07-09T12:03:01;3.55;;;1.90;;
21183;SDS011;18176;49.502;11.754;2022-07-09T12:07:09;3.05;;;1.70;;
21183;SDS011;18176;49.502;11.754;2022-07-09T12:11:06;2.75;;;1.70;;
21183;SDS011;18176;49.502;11.754;2022-07-09T12:15:04;2.67;;;1.60;;
21183;SDS011;18176;49.502;11.754;2022-07-09T12:19:04;1.92;;;1.45;;
21183;SDS011;18176;49.502;11.754;2022-07-09T12:23:02;2.60;;;1.80;;
21183;SDS011;18176;49.502;11.754;2022-07-09T12:26:59;2.85;;;1.60;;
21183;SDS011;18176;49.502;11.754;2022-07-09T12:31:16;3.45;;;1.52;;
21183;SDS011;18176;49.502;11.754;2022-07-09T12:35:13;2.03;;;1.42;;
21183;SDS011;18176;49.502;11.754;2022-07-09T12:39:11;3.05;;;1.30;;
21183;SDS011;18176;49.502;11.754;2022-07-09T12:43:08;2.40;;;1.45;;
21183;SDS011;18176;49.502;11.754;2022-07-09T12:47:05;4.47;;;1.58;;
21183;SDS011;18176;49.502;11.754;2022-07-09T12:51:02;3.22;;;1.60;;
21183;SDS011;18176;49.502;11.754;2022-07-09T12:54:59;3.25;;;1.90;;
21183;SDS011;18176;49.502;11.754;2022-07-09T12:58:57;2.53;;;1.92;;
21183;SDS011;18176;49.502;11.754;2022-07-09T13:02:54;6.03;;;2.50;;
21183;SDS011;18176;49.502;11.754;2022-07-09T13:06:52;5.28;;;1.80;;
21183;SDS011;18176;49.502;11.754;2022-07-09T13:10:49;2.65;;;1.48;;
21183;SDS011;18176;49.502;11.754;2022-07-09T13:14:47;5.00;;;1.95;;
21183;SDS011;18176;49.502;11.754;2022-07-09T13:18:44;3.50;;;1.70;;
21183;SDS011;18176;49.502;11.754;2022-07-09T13:22:41;5.97;;;1.85;;
21183;SDS011;18176;49.502;11.754;2022-07-09T13:26:38;3.78;;;1.63;;
21183;SDS011;18176;49.502;11.754;2022-07-09T13:30:37;2.75;;;1.70;;
21183;SDS011;18176;49.502;11.754;2022-07-09T13:34:34;3.78;;;1.73;;
21183;SDS011;18176;49.502;11.754;2022-07-09T13:38:32;2.55;;;1.67;;
21183;SDS011;18176;49.502;11.754;2022-07-09T13:42:30;4.30;;;2.05;;
21183;SDS011;18176;49.502;11.754;2022-07-09T13:46:27;8.20;;;1.70;;
21183;SDS011;18176;49.502;11.754;2022-07-09T13:50:25;1.92;;;1.75;;
21183;SDS011;18176;49.502;11.754;2022-07-09T13:54:22;1.92;;;1.70;;
21183;SDS011;18176;49.502;11.754;2022-07-09T13:58:19;3.60;;;1.85;;
21183;SDS011;18176;49.502;11.754;2022-07-09T14:02:17;3.60;;;1.80;;
21183;SDS011;18176;49.502;11.754;2022-07-09T14:06:16;3.33;;;1.80;;
21183;SDS011;18176;49.502;11.754;2022-07-09T14:10:34;6.38;;;1.98;;
21183;SDS011;18176;49.502;11.754;2022-07-09T14:14:32;4.40;;;1.88;;
21183;SDS011;18176;49.502;11.754;2022-07-09T14:18:29;5.13;;;1.95;;
21183;SDS011;18176;49.502;11.754;2022-07-09T14:22:26;4.07;;;2.30;;
21183;SDS011;18176;49.502;11.754;2022-07-09T14:26:23;3.47;;;1.92;;
21183;SDS011;18176;49.502;11.754;2022-07-09T14:30:20;2.53;;;2.10;;
21183;SDS011;18176;49.502;11.754;2022-07-09T14:34:20;4.68;;;2.20;;
21183;SDS011;18176;49.502;11.754;2022-07-09T14:38:18;4.30;;;2.08;;
21183;SDS011;18176;49.502;11.754;2022-07-09T14:42:15;2.00;;;1.80;;
21183;SDS011;18176;49.502;11.754;2022-07-09T14:46:12;4.15;;;1.85;;
21183;SDS011;18176;49.502;11.754;2022-07-09T14:50:10;2.20;;;1.70;;
21183;SDS011;18176;49.502;11.754;2022-07-09T14:54:07;2.67;;;2.10;;
21183;SDS011;18176;49.502;11.754;2022-07-09T14:58:04;5.95;;;2.08;;
21183;SDS011;18176;49.502;11.754;2022-07-09T15:02:01;3.55;;;2.00;;
21183;SDS011;18176;49.502;11.754;2022-07-09T15:05:59;2.22;;;1.90;;
21183;SDS011;18176;49.502;11.754;2022-07-09T15:09:56;5.00;;;2.15;;
21183;SDS011;18176;49.502;11.754;2022-07-09T15:13:53;4.07;;;2.00;;
21183;SDS011;18176;49.502;11.754;2022-07-09T15:17:50;2.67;;;2.22;;
21183;SDS011;18176;49.502;11.754;2022-07-09T15:21:48;3.67;;;2.38;;
21183;SDS011;18176;49.502;11.754;2022-07-09T15:25:46;3.65;;;2.10;;
21183;SDS011;18176;49.502;11.754;2022-07-09T15:29:43;3.05;;;2.13;;
21183;SDS011;18176;49.502;11.754;2022-07-09T15:33:40;3.88;;;2.30;;
21183;SDS011;18176;49.502;11.754;2022-07-09T15:37:37;3.00;;;2.15;;
21183;SDS011;18176;49.502;11.754;2022-07-09T15:41:34;4.90;;;2.08;;
21183;SDS011;18176;49.502;11.754;2022-07-09T15:45:38;7.80;;;2.17;;
21183;SDS011;18176;49.502;11.754;2022-07-09T15:49:35;4.13;;;2.50;;
21183;SDS011;18176;49.502;11.754;2022-07-09T15:53:34;2.60;;;2.20;;
21183;SDS011;18176;49.502;11.754;2022-07-09T15:57:31;5.93;;;2.50;;
21183;SDS011;18176;49.502;11.754;2022-07-09T16:01:29;3.42;;;2.42;;
21183;SDS011;18176;49.502;11.754;2022-07-09T16:05:28;2.90;;;2.20;;
21183;SDS011;18176;49.502;11.754;2022-07-09T16:09:26;2.60;;;2.25;;
21183;SDS011;18176;49.502;11.754;2022-07-09T16:13:23;4.53;;;2.70;;
21183;SDS011;18176;49.502;11.754;2022-07-09T16:17:20;5.97;;;2.45;;
21183;SDS011;18176;49.502;11.754;2022-07-09T16:21:17;3.17;;;2.30;;
21183;SDS011;18176;49.502;11.754;2022-07-09T16:25:14;4.65;;;2.20;;
21183;SDS011;18176;49.502;11.754;2022-07-09T16:29:11;5.97;;;2.40;;
21183;SDS011;18176;49.502;11.754;2022-07-09T16:33:08;3.95;;;2.40;;
21183;SDS011;18176;49.502;11.754;2022-07-09T16:37:05;4.07;;;2.80;;
21183;SDS011;18176;49.502;11.754;2022-07-09T16:41:02;2.42;;;2.15;;
21183;SDS011;18176;49.502;11.754;2022-07-09T16:45:00;3.38;;;2.40;;
21183;SDS011;18176;49.502;11.754;2022-07-09T16:48:57;5.00;;;2.50;;
21183;SDS011;18176;49.502;11.754;2022-07-09T16:52:54;5.05;;;2.55;;
21183;SDS011;18176;49.502;11.754;2022-07-09T16:56:51;3.78;;;2.35;;
21183;SDS011;18176;49.502;11.754;2022-07-09T17:00:48;4.63;;;2.80;;
21183;SDS011;18176;49.502;11.754;2022-07-09T17:04:45;3.22;;;2.50;;
21183;SDS011;18176;49.502;11.754;2022-07-09T17:08:42;3.28;;;2.55;;
21183;SDS011;18176;49.502;11.754;2022-07-09T17:12:40;3.53;;;2.45;;
21183;SDS011;18176;49.502;11.754;2022-07-09T17:16:37;4.57;;;2.60;;
21183;SDS011;18176;49.502;11.754;2022-07-09T17:20:34;5.20;;;2.47;;
21183;SDS011;18176;49.502;11.754;2022-07-09T17:24:32;2.90;;;2.20;;
21183;SDS011;18176;49.502;11.754;2022-07-09T17:28:29;2.28;;;2.08;;
21183;SDS011;18176;49.502;11.754;2022-07-09T17:32:26;2.38;;;2.17;;
21183;SDS011;18176;49.502;11.754;2022-07-09T17:36:23;2.60;;;2.40;;
21183;SDS011;18176;49.502;11.754;2022-07-09T17:40:20;2.65;;;2.30;;
21183;SDS011;18176;49.502;11.754;2022-07-09T17:44:19;3.50;;;2.30;;
21183;SDS011;18176;49.502;11.754;2022-07-09T17:48:16;3.53;;;2.50;;
21183;SDS011;18176;49.502;11.754;2022-07-09T17:52:13;3.42;;;1.95;;
21183;SDS011;18176;49.502;11.754;2022-07-09T17:56:11;3.70;;;2.20;;
21183;SDS011;18176;49.502;11.754;2022-07-09T18:00:08;1.85;;;1.70;;
21183;SDS011;18176;49.502;11.754;2022-07-09T18:04:07;3.20;;;1.70;;
21183;SDS011;18176;49.502;11.754;2022-07-09T18:08:04;5.88;;;1.50;;
21183;SDS011;18176;49.502;11.754;2022-07-09T18:12:01;1.50;;;1.40;;
21183;SDS011;18176;49.502;11.754;2022-07-09T18:16:01;3.38;;;1.52;;
21183;SDS011;18176;49.502;11.754;2022-07-09T18:19:58;1.40;;;1.30;;
21183;SDS011;18176;49.502;11.754;2022-07-09T18:23:56;2.08;;;1.38;;
21183;SDS011;18176;49.502;11.754;2022-07-09T18:28:00;1.40;;;1.30;;
21183;SDS011;18176;49.502;11.754;2022-07-09T18:31:59;2.35;;;1.50;;
21183;SDS011;18176;49.502;11.754;2022-07-09T18:35:57;2.55;;;1.77;;
21183;SDS011;18176;49.502;11.754;2022-07-09T18:40:00;2.22;;;1.70;;
21183;SDS011;18176;49.502;11.754;2022-07-09T18:43:58;1.90;;;1.58;;
21183;SDS011;18176;49.502;11.754;2022-07-09T18:47:55;2.33;;;1.73;;
21183;SDS011;18176;49.502;11.754;2022-07-09T18:51:58;1.88;;;1.40;;
21183;SDS011;18176;49.502;11.754;2022-07-09T18:55:55;2.50;;;1.75;;
21183;SDS011;18176;49.502;11.754;2022-07-09T18:59:52;1.83;;;1.60;;
21183;SDS011;18176;49.502;11.754;2022-07-09T19:03:49;2.15;;;1.90;;
21183;SDS011;18176;49.502;11.754;2022-07-09T19:07:46;4.03;;;1.90;;
21183;SDS011;18176;49.502;11.754;2022-07-09T19:11:43;3.30;;;1.92;;
21183;SDS011;18176;49.502;11.754;2022-07-09T19:15:41;2.78;;;1.90;;
21183;SDS011;18176;49.502;11.754;2022-07-09T19:19:38;4.53;;;1.80;;
21183;SDS011;18176;49.502;11.754;2022-07-09T19:23:35;2.63;;;1.80;;
21183;SDS011;18176;49.502;11.754;2022-07-09T19:27:32;1.83;;;1.63;;
21183;SDS011;18176;49.502;11.754;2022-07-09T19:31:29;2.10;;;1.85;;
21183;SDS011;18176;49.502;11.754;2022-07-09T19:35:45;2.42;;;1.77;;
21183;SDS011;18176;49.502;11.754;2022-07-09T19:39:42;4.28;;;1.77;;
21183;SDS011;18176;49.502;11.754;2022-07-09T19:43:39;3.08;;;1.90;;
21183;SDS011;18176;49.502;11.754;2022-07-09T19:47:36;2.03;;;1.90;;
21183;SDS011;18176;49.502;11.754;2022-07-09T19:51:36;3.38;;;1.77;;
21183;SDS011;18176;49.502;11.754;2022-07-09T19:55:33;2.65;;;1.90;;
21183;SDS011;18176;49.502;11.754;2022-07-09T19:59:30;3.10;;;2.20;;
21183;SDS011;18176;49.502;11.754;2022-07-09T20:03:27;4.13;;;2.22;;
21183;SDS011;18176;49.502;11.754;2022-07-09T20:07:24;2.35;;;2.05;;
21183;SDS011;18176;49.502;11.754;2022-07-09T20:11:22;3.80;;;2.50;;
21183;SDS011;18176;49.502;11.754;2022-07-09T20:15:20;3.13;;;2.40;;
21183;SDS011;18176;49.502;11.754;2022-07-09T20:19:17;3.72;;;2.13;;
21183;SDS011;18176;49.502;11.754;2022-07-09T20:23:14;4.22;;;2.10;;
21183;SDS011;18176;49.502;11.754;2022-07-09T20:27:11;4.25;;;2.38;;
21183;SDS011;18176;49.502;11.754;2022-07-09T20:31:09;3.90;;;2.40;;
21183;SDS011;18176;49.502;11.754;2022-07-09T20:35:06;4.40;;;2.90;;
21183;SDS011;18176;49.502;11.754;2022-07-09T20:39:05;5.50;;;3.72;;
21183;SDS011;18176;49.502;11.754;2022-07-09T20:43:02;5.80;;;4.18;;
21183;SDS011;18176;49.502;11.754;2022-07-09T20:47:00;2.88;;;2.60;;
21183;SDS011;18176;49.502;11.754;2022-07-09T20:50:58;2.70;;;2.50;;
21183;SDS011;18176;49.502;11.754;2022-07-09T20:54:55;3.63;;;2.35;;
21183;SDS011;18176;49.502;11.754;2022-07-09T20:58:52;3.28;;;2.47;;
21183;SDS011;18176;49.502;11.754;2022-07-09T21:02:49;3.08;;;2.58;;
21183;SDS011;18176;49.502;11.754;2022-07-09T21:06:48;2.55;;;2.35;;
21183;SDS011;18176;49.502;11.754;2022-07-09T21:10:45;3.42;;;2.60;;
21183;SDS011;18176;49.502;11.754;2022-07-09T21:14:42;3.13;;;2.10;;
21183;SDS011;18176;49.502;11.754;2022-07-09T21:18:39;2.50;;;2.30;;
21183;SDS011;18176;49.502;11.754;2022-07-09T21:22:43;2.88;;;2.28;;
21183;SDS011;18176;49.502;11.754;2022-07-09T21:26:41;5.78;;;2.65;;
21183;SDS011;18176;49.502;11.754;2022-07-09T21:30:42;2.47;;;2.25;;
21183;SDS011;18176;49.502;11.754;2022-07-09T21:34:40;4.50;;;2.20;;
21183;SDS011;18176;49.502;11.754;2022-07-09T21:38:37;4.28;;;2.38;;
21183;SDS011;18176;49.502;11.754;2022-07-09T21:42:36;4.03;;;2.60;;
21183;SDS011;18176;49.502;11.754;2022-07-09T21:46:33;2.50;;;2.30;;
21183;SDS011;18176;49.502;11.754;2022-07-09T21:50:30;2.22;;;1.90;;
21183;SDS011;18176;49.502;11.754;2022-07-09T21:54:28;3.17;;;2.30;;
21183;SDS011;18176;49.502;11.754;2022-07-09T21:58:26;3.80;;;2.30;;
21183;SDS011;18176;49.502;11.754;2022-07-09T22:02:23;3.17;;;2.40;;
21183;SDS011;18176;49.502;11.754;2022-07-09T22:06:21;2.50;;;2.17;;
21183;SDS011;18176;49.502;11.754;2022-07-09T22:10:18;2.30;;;2.10;;
21183;SDS011;18176;49.502;11.754;2022-07-09T22:14:15;6.28;;;2.38;;
21183;SDS011;18176;49.502;11.754;2022-07-09T22:18:12;2.45;;;2.10;;
21183;SDS011;18176;49.502;11.754;2022-07-09T22:22:09;4.97;;;2.38;;
21183;SDS011;18176;49.502;11.754;2022-07-09T22:26:08;2.58;;;2.38;;
21183;SDS011;18176;49.502;11.754;2022-07-09T22:30:05;3.30;;;2.03;;
21183;SDS011;18176;49.502;11.754;2022-07-09T22:34:04;3.03;;;2.72;;
21183;SDS011;18176;49.502;11.754;2022-07-09T22:38:04;3.35;;;2.80;;
21183;SDS011;18176;49.502;11.754;2022-07-09T22:42:01;3.08;;;2.50;;
21183;SDS011;18176;49.502;11.754;2022-07-09T22:45:59;4.20;;;2.33;;
21183;SDS011;18176;49.502;11.754;2022-07-09T22:49:59;2.58;;;2.38;;
21183;SDS011;18176;49.502;11.754;2022-07-09T22:53:56;2.78;;;2.58;;
21183;SDS011;18176;49.502;11.754;2022-07-09T22:57:53;2.83;;;2.60;;
21183;SDS011;18176;49.502;11.754;2022-07-09T23:01:50;4.03;;;2.60;;
21183;SDS011;18176;49.502;11.754;2022-07-09T23:05:50;2.60;;;2.40;;
21183;SDS011;18176;49.502;11.754;2022-07-09T23:09:47;2.83;;;2.60;;
21183;SDS011;18176;49.502;11.754;2022-07-09T23:13:44;4.43;;;2.47;;
21183;SDS011;18176;49.502;11.754;2022-07-09T23:17:41;2.45;;;2.25;;
21183;SDS011;18176;49.502;11.754;2022-07-09T23:21:39;3.08;;;2.30;;
21183;SDS011;18176;49.502;11.754;2022-07-09T23:25:36;2.97;;;2.50;;
21183;SDS011;18176;49.502;11.754;2022-07-09T23:29:33;2.92;;;2.67;;
21183;SDS011;18176;49.502;11.754;2022-07-09T23:33:30;3.80;;;2.70;;
21183;SDS011;18176;49.502;11.754;2022-07-09T23:37:27;3.00;;;2.50;;
21183;SDS011;18176;49.502;11.754;2022-07-09T23:41:25;3.45;;;2.30;;
21183;SDS011;18176;49.502;11.754;2022-07-09T23:45:22;2.65;;;2.40;;